createdAt,value
2019-06-08T00:00:50.373Z,50.70
2019-06-08T00:03:16.833Z,50.90
2019-06-08T00:05:43.143Z,50.70
2019-06-08T00:08:09.985Z,50.90
2019-06-08T00:10:36.303Z,50.60
2019-06-08T00:13:02.721Z,51.00
2019-06-08T00:15:29.291Z,51.10
2019-06-08T00:17:58.704Z,51.00
2019-06-08T00:20:23.840Z,51.10
2019-06-08T00:22:50.164Z,51.20
2019-06-08T00:25:18.188Z,51.10
2019-06-08T00:27:44.591Z,51.30
2019-06-08T00:30:11.196Z,51.30
2019-06-08T00:32:38.904Z,51.20
2019-06-08T00:35:05.958Z,51.30
2019-06-08T00:37:32.368Z,51.10
2019-06-08T00:39:58.701Z,51.10
2019-06-08T00:42:25.631Z,51.10
2019-06-08T00:44:52.066Z,51.10
2019-06-08T00:47:18.539Z,50.90
2019-06-08T00:49:45.007Z,50.80
2019-06-08T00:52:11.538Z,51.10
2019-06-08T00:54:38.056Z,51.10
2019-06-08T00:57:04.504Z,51.30
2019-06-08T00:59:30.929Z,51.30
2019-06-08T01:01:57.231Z,51.40
2019-06-08T01:04:24.822Z,51.40
2019-06-08T01:06:51.592Z,51.70
2019-06-08T01:09:18.120Z,51.70
2019-06-08T01:11:44.726Z,51.50
2019-06-08T01:14:11.048Z,51.50
2019-06-08T01:16:37.596Z,51.70
2019-06-08T01:19:04.005Z,51.80
2019-06-08T01:21:30.539Z,51.70
2019-06-08T01:23:56.857Z,52.00
2019-06-08T01:26:23.956Z,51.70
2019-06-08T01:28:50.582Z,51.90
2019-06-08T01:31:17.117Z,51.90
2019-06-08T01:33:44.724Z,51.80
2019-06-08T01:36:11.755Z,51.80
2019-06-08T01:38:38.059Z,52.10
2019-06-08T01:41:04.489Z,52.10
2019-06-08T01:43:31.774Z,52.00
2019-06-08T01:45:58.141Z,52.00
2019-06-08T01:48:24.599Z,51.90
2019-06-08T01:50:52.047Z,52.20
2019-06-08T01:53:18.480Z,52.10
2019-06-08T01:55:44.882Z,52.00
2019-06-08T01:58:11.191Z,52.10
2019-06-08T02:00:41.202Z,52.20
2019-06-08T02:03:05.712Z,52.20
2019-06-08T02:05:32.513Z,52.10
2019-06-08T02:07:59.547Z,52.40
2019-06-08T02:10:26.640Z,52.50
2019-06-08T02:12:53.225Z,52.60
2019-06-08T02:15:21.643Z,52.10
2019-06-08T02:17:48.073Z,52.40
2019-06-08T02:20:15.775Z,52.10
2019-06-08T02:22:42.344Z,52.40
2019-06-08T02:25:08.659Z,52.10
2019-06-08T02:27:35.818Z,52.20
2019-06-08T02:30:10.258Z,52.30
2019-06-08T02:32:37.378Z,52.20
2019-06-08T02:35:05.503Z,52.40
2019-06-08T02:37:33.137Z,52.10
2019-06-08T02:39:59.814Z,51.70
2019-06-08T02:42:28.202Z,51.90
2019-06-08T02:44:54.393Z,52.70
2019-06-08T02:47:20.715Z,52.00
2019-06-08T02:49:47.124Z,51.90
2019-06-08T02:55:54.523Z,52.40
2019-06-08T02:58:29.096Z,52.50
2019-06-08T03:00:54.741Z,52.40
2019-06-08T03:03:21.149Z,52.50
2019-06-08T03:05:48.353Z,52.70
2019-06-08T03:08:14.673Z,53.50
2019-06-08T03:10:41.516Z,53.80
2019-06-08T03:13:11.237Z,54.00
2019-06-08T03:15:40.919Z,54.00
2019-06-08T03:18:07.852Z,53.50
2019-06-08T03:20:37.867Z,53.50
2019-06-08T03:23:04.583Z,53.40
2019-06-08T03:25:33.166Z,53.30
2019-06-08T03:27:59.806Z,53.30
2019-06-08T03:30:26.469Z,53.30
2019-06-08T03:32:56.275Z,53.00
2019-06-08T03:35:21.904Z,52.90
2019-06-08T03:37:48.334Z,53.30
2019-06-08T03:40:15.874Z,52.80
2019-06-08T03:42:42.166Z,52.60
2019-06-08T03:45:08.704Z,52.60
2019-06-08T03:47:36.899Z,52.60
2019-06-08T03:50:06.581Z,52.50
2019-06-08T03:52:33.036Z,53.10
2019-06-08T03:54:59.736Z,52.50
2019-06-08T03:57:26.350Z,52.40
2019-06-08T03:59:53.048Z,52.40
2019-06-08T04:02:19.299Z,52.40
2019-06-08T04:04:46.246Z,52.50
2019-06-08T04:07:12.764Z,52.50
2019-06-08T04:09:39.791Z,52.40
2019-06-08T04:12:06.483Z,52.40
2019-06-08T04:14:32.820Z,52.40
2019-06-08T04:16:59.431Z,52.30
2019-06-08T04:19:26.263Z,52.30
2019-06-08T04:21:52.684Z,52.30
2019-06-08T04:24:18.984Z,52.20
2019-06-08T04:26:46.964Z,52.10
2019-06-08T04:29:13.923Z,52.10
2019-06-08T04:31:41.782Z,52.00
2019-06-08T04:34:08.355Z,52.10
2019-06-08T04:36:35.846Z,52.00
2019-06-08T04:39:04.789Z,52.00
2019-06-08T04:41:31.110Z,51.90
2019-06-08T04:43:57.448Z,52.00
2019-06-08T04:46:24.392Z,51.70
2019-06-08T04:48:50.700Z,51.70
2019-06-08T04:51:17.244Z,51.70
2019-06-08T04:53:45.115Z,51.70
2019-06-08T04:56:11.685Z,51.70
2019-06-08T04:58:39.864Z,51.70
2019-06-08T05:01:06.293Z,51.50
2019-06-08T05:03:32.716Z,51.50
2019-06-08T05:05:59.019Z,51.40
2019-06-08T05:08:25.445Z,51.40
2019-06-08T05:10:51.744Z,51.40
2019-06-08T05:13:18.146Z,51.30
2019-06-08T05:15:45.465Z,51.30
2019-06-08T05:18:12.304Z,51.20
2019-06-08T05:20:41.082Z,51.20
2019-06-08T05:23:06.741Z,51.20
2019-06-08T05:25:33.049Z,51.10
2019-06-08T05:27:59.387Z,51.60
2019-06-08T05:30:28.051Z,51.00
2019-06-08T05:32:55.634Z,51.00
2019-06-08T05:35:21.980Z,50.80
2019-06-08T05:37:48.301Z,50.90
2019-06-08T05:40:15.027Z,50.70
2019-06-08T05:42:42.789Z,50.60
2019-06-08T05:45:09.477Z,50.70
2019-06-08T05:47:35.779Z,50.60
2019-06-08T05:50:07.211Z,50.60
2019-06-08T05:52:33.539Z,50.60
2019-06-08T05:54:59.843Z,50.40
2019-06-08T05:57:26.869Z,50.40
2019-06-08T05:59:53.172Z,50.40
2019-06-08T06:02:19.604Z,50.40
2019-06-08T06:04:46.401Z,50.20
2019-06-08T06:07:13.014Z,50.10
2019-06-08T06:09:40.996Z,50.10
2019-06-08T06:12:07.561Z,49.90
2019-06-08T06:14:36.871Z,51.30
2019-06-08T06:17:02.194Z,51.40
2019-06-08T06:19:30.241Z,51.10
2019-06-08T06:21:58.404Z,50.80
2019-06-08T06:24:24.935Z,50.40
2019-06-08T06:26:51.659Z,50.40
2019-06-08T06:29:18.491Z,50.10
2019-06-08T06:31:45.810Z,50.10
2019-06-08T06:34:12.342Z,50.00
2019-06-08T06:36:38.638Z,50.10
2019-06-08T06:39:06.597Z,49.80
2019-06-08T06:41:32.909Z,49.80
2019-06-08T06:43:59.245Z,49.80
2019-06-08T06:46:25.865Z,49.60
2019-06-08T06:48:52.647Z,49.70
2019-06-08T06:51:26.118Z,49.50
2019-06-08T06:53:48.746Z,49.20
2019-06-08T06:56:15.334Z,49.20
2019-06-08T06:58:42.987Z,49.20
2019-06-08T07:01:09.779Z,43.90
2019-06-08T07:03:36.089Z,45.00
2019-06-08T07:06:02.423Z,46.60
2019-06-08T07:08:28.749Z,46.30
2019-06-08T07:10:55.279Z,45.60
2019-06-08T07:13:21.694Z,45.20
2019-06-08T07:15:52.673Z,45.10
2019-06-08T07:18:16.855Z,44.90
2019-06-08T07:20:43.168Z,45.00
2019-06-08T07:23:09.499Z,45.20
2019-06-08T07:25:38.649Z,45.20
2019-06-08T07:28:05.043Z,45.40
2019-06-08T07:30:31.476Z,45.50
2019-06-08T07:32:59.217Z,45.50
2019-06-08T07:35:26.066Z,45.60
2019-06-08T07:37:53.709Z,45.70
2019-06-08T07:40:20.642Z,45.70
2019-06-08T07:42:47.647Z,45.80
2019-06-08T07:45:15.068Z,45.90
2019-06-08T07:47:41.589Z,46.00
2019-06-08T07:50:08.060Z,46.10
2019-06-08T07:52:34.451Z,45.90
2019-06-08T07:55:00.808Z,45.90
2019-06-08T07:57:27.348Z,46.00
2019-06-08T07:59:56.345Z,45.90
2019-06-08T08:02:23.051Z,45.90
2019-06-08T08:04:50.444Z,45.90
2019-06-08T08:07:17.249Z,45.90
2019-06-08T08:09:43.568Z,45.90
2019-06-08T08:12:12.267Z,45.80
2019-06-08T08:14:38.609Z,45.80
2019-06-08T08:17:05.038Z,46.00
2019-06-08T08:19:31.732Z,45.80
2019-06-08T08:22:03.144Z,46.60
2019-06-08T08:24:27.237Z,45.90
2019-06-08T08:26:55.024Z,45.70
2019-06-08T08:29:24.714Z,45.70
2019-06-08T08:31:51.815Z,45.70
2019-06-08T08:34:18.392Z,45.50
2019-06-08T08:36:44.879Z,45.40
2019-06-08T08:39:13.016Z,45.40
2019-06-08T08:41:39.386Z,45.50
2019-06-08T08:44:07.843Z,45.50
2019-06-08T08:46:38.585Z,45.50
2019-06-08T08:49:09.559Z,45.50
2019-06-08T08:51:32.892Z,45.60
2019-06-08T08:54:03.969Z,45.20
2019-06-08T08:56:28.130Z,44.40
2019-06-08T08:58:54.528Z,44.40
2019-06-08T09:01:21.884Z,44.90
2019-06-08T09:03:51.827Z,45.10
2019-06-08T09:06:18.736Z,45.10
2019-06-08T09:08:52.027Z,45.00
2019-06-08T09:11:18.707Z,45.00
2019-06-08T09:13:45.016Z,45.20
2019-06-08T09:16:12.221Z,45.30
2019-06-08T09:18:38.697Z,45.50
2019-06-08T09:21:08.129Z,45.50
2019-06-08T09:23:33.746Z,45.50
2019-06-08T09:26:07.479Z,45.90
2019-06-08T09:28:28.643Z,45.60
2019-06-08T09:30:56.178Z,45.70
2019-06-08T09:33:23.272Z,45.70
2019-06-08T09:35:49.846Z,45.70
2019-06-08T09:38:18.401Z,46.10
2019-06-08T09:40:44.415Z,45.50
2019-06-08T09:43:13.250Z,45.60
2019-06-08T09:45:38.999Z,45.70
2019-06-08T09:48:08.792Z,45.60
2019-06-08T09:50:33.671Z,45.70
2019-06-08T09:53:18.281Z,45.80
2019-06-08T09:55:28.836Z,45.70
2019-06-08T09:57:59.049Z,45.80
2019-06-08T10:00:28.334Z,45.70
2019-06-08T10:02:54.619Z,45.70
2019-06-08T10:05:21.602Z,45.80
2019-06-08T10:07:48.744Z,45.70
2019-06-08T10:10:15.134Z,45.80
2019-06-08T10:12:41.658Z,45.80
2019-06-08T10:15:12.070Z,45.90
2019-06-08T10:17:38.664Z,41.30
2019-06-08T10:20:07.396Z,37.70
2019-06-08T10:22:34.008Z,38.10
2019-06-08T10:25:03.988Z,37.00
2019-06-08T10:27:28.796Z,37.80
2019-06-08T10:29:55.363Z,37.60
2019-06-08T10:32:23.709Z,38.00
2019-06-08T10:34:52.916Z,35.60
2019-06-08T10:37:19.220Z,36.50
2019-06-08T10:39:47.743Z,36.10
2019-06-08T10:42:17.805Z,36.10
2019-06-08T10:44:43.425Z,35.10
2019-06-08T10:47:11.795Z,35.40
2019-06-08T10:49:38.548Z,35.60
2019-06-08T10:52:07.481Z,35.60
2019-06-08T10:54:33.551Z,35.60
2019-06-08T10:57:02.550Z,35.20
2019-06-08T10:59:28.915Z,34.30
2019-06-08T11:01:58.711Z,33.90
2019-06-08T11:04:24.189Z,33.90
2019-06-08T11:06:50.615Z,34.30
2019-06-08T11:09:18.914Z,34.00
2019-06-08T11:11:47.943Z,34.50
2019-06-08T11:14:13.852Z,34.10
2019-06-08T11:16:40.284Z,33.30
2019-06-08T11:19:07.690Z,33.10
2019-06-08T11:21:38.545Z,33.30
2019-06-08T11:24:16.502Z,33.90
2019-06-08T11:26:33.428Z,33.10
2019-06-08T11:29:01.536Z,32.80
2019-06-08T11:31:31.816Z,34.10
2019-06-08T11:33:58.491Z,35.30
2019-06-08T11:36:24.494Z,35.20
2019-06-08T11:38:50.867Z,34.60
2019-06-08T11:41:18.963Z,32.70
2019-06-08T11:43:45.907Z,32.90
2019-06-08T11:46:12.341Z,33.60
2019-06-08T11:48:41.338Z,32.70
2019-06-08T11:51:09.563Z,34.70
2019-06-08T11:53:38.291Z,35.60
2019-06-08T11:56:04.639Z,36.20
2019-06-08T11:58:31.333Z,36.10
2019-06-08T12:01:02.845Z,36.50
2019-06-08T12:03:30.541Z,37.10
2019-06-08T12:05:58.299Z,37.40
2019-06-08T12:08:24.885Z,37.90
2019-06-08T12:10:51.573Z,38.30
2019-06-08T12:13:18.111Z,38.50
2019-06-08T12:15:45.412Z,38.70
2019-06-08T12:18:12.693Z,39.20
2019-06-08T12:20:40.070Z,39.20
2019-06-08T12:23:06.383Z,40.00
2019-06-08T12:25:32.815Z,39.60
2019-06-08T12:27:59.234Z,39.90
2019-06-08T12:30:28.956Z,40.00
2019-06-08T12:32:54.124Z,40.20
2019-06-08T12:35:20.449Z,40.20
2019-06-08T12:37:48.409Z,40.30
2019-06-08T12:40:16.902Z,40.40
2019-06-08T12:42:43.240Z,40.50
2019-06-08T12:45:11.194Z,40.90
2019-06-08T12:47:38.217Z,40.90
2019-06-08T12:50:05.100Z,41.00
2019-06-08T12:52:31.410Z,41.00
2019-06-08T12:55:06.084Z,41.40
2019-06-08T12:57:28.398Z,40.70
2019-06-08T12:59:54.503Z,38.00
2019-06-08T13:02:23.867Z,36.40
2019-06-08T13:04:49.168Z,36.40
2019-06-08T13:07:16.943Z,36.40
2019-06-08T13:09:43.760Z,36.10
2019-06-08T13:12:11.333Z,36.60
2019-06-08T13:14:45.164Z,35.90
2019-06-08T13:17:13.023Z,35.40
2019-06-08T13:19:39.824Z,35.50
2019-06-08T13:22:06.469Z,35.40
2019-06-08T13:24:32.936Z,35.40
2019-06-08T13:26:59.244Z,35.50
2019-06-08T13:29:27.890Z,35.20
2019-06-08T13:31:53.914Z,34.10
2019-06-08T13:34:23.924Z,33.90
2019-06-08T13:36:48.609Z,33.50
2019-06-08T13:39:15.011Z,31.30
2019-06-08T13:41:41.336Z,32.20
2019-06-08T13:44:08.445Z,32.00
2019-06-08T13:46:37.958Z,32.50
2019-06-08T13:49:04.499Z,32.50
2019-06-08T13:51:30.968Z,33.30
2019-06-08T13:53:58.127Z,33.40
2019-06-08T13:56:24.638Z,33.00
2019-06-08T13:58:50.976Z,33.30
2019-06-08T14:01:17.869Z,32.40
2019-06-08T14:03:44.308Z,32.80
2019-06-08T14:06:11.037Z,33.20
2019-06-08T14:08:38.644Z,32.00
2019-06-08T14:11:05.106Z,32.40
2019-06-08T14:13:34.494Z,32.00
2019-06-08T14:16:00.064Z,31.50
2019-06-08T14:18:33.053Z,32.00
2019-06-08T14:20:55.274Z,31.10
2019-06-08T14:23:23.143Z,31.10
2019-06-08T14:25:56.613Z,31.90
2019-06-08T14:28:21.208Z,30.60
2019-06-08T14:30:47.992Z,30.50
2019-06-08T14:33:14.886Z,31.00
2019-06-08T14:35:41.416Z,31.40
2019-06-08T14:38:08.521Z,32.30
2019-06-08T14:40:34.811Z,31.70
2019-06-08T14:43:01.261Z,32.60
2019-06-08T14:45:29.622Z,33.20
2019-06-08T14:47:55.825Z,31.90
2019-06-08T14:50:22.904Z,32.10
2019-06-08T14:52:50.504Z,31.60
2019-06-08T14:55:18.759Z,31.40
2019-06-08T14:57:48.044Z,30.70
2019-06-08T15:00:14.059Z,31.20
2019-06-08T15:02:40.360Z,30.80
2019-06-08T15:05:09.529Z,31.00
2019-06-08T15:07:47.781Z,31.50
2019-06-08T15:10:13.785Z,31.30
2019-06-08T15:12:40.347Z,30.70
2019-06-08T15:15:08.303Z,30.60
2019-06-08T15:17:35.137Z,31.00
2019-06-08T15:20:01.456Z,31.20
2019-06-08T15:22:29.909Z,31.30
2019-06-08T15:24:58.020Z,31.00
2019-06-08T15:27:25.905Z,31.00
2019-06-08T15:29:52.775Z,31.60
2019-06-08T15:32:19.447Z,32.60
2019-06-08T15:34:47.717Z,32.20
2019-06-08T15:37:14.079Z,33.20
2019-06-08T15:39:40.557Z,33.10
2019-06-08T15:42:08.253Z,32.80
2019-06-08T15:44:34.894Z,31.60
2019-06-08T15:47:01.199Z,32.50
2019-06-08T15:49:29.471Z,32.20
2019-06-08T15:51:57.787Z,32.40
2019-06-08T15:54:24.627Z,32.80
2019-06-08T15:56:52.219Z,32.90
2019-06-08T15:59:18.926Z,32.50
2019-06-08T16:01:45.243Z,32.30
2019-06-08T16:04:11.548Z,31.90
2019-06-08T16:06:37.973Z,32.00
2019-06-08T16:09:06.700Z,32.10
2019-06-08T16:11:33.004Z,32.30
2019-06-08T16:13:59.319Z,32.40
2019-06-08T16:16:26.987Z,32.00
2019-06-08T16:18:53.840Z,31.60
2019-06-08T16:21:20.459Z,31.70
2019-06-08T16:23:47.241Z,32.20
2019-06-08T16:26:13.733Z,32.40
2019-06-08T16:28:40.284Z,32.60
2019-06-08T16:31:06.759Z,31.10
2019-06-08T16:33:33.404Z,31.70
2019-06-08T16:36:00.261Z,31.60
2019-06-08T16:38:27.872Z,31.70
2019-06-08T16:40:54.444Z,31.40
2019-06-08T16:43:21.125Z,31.60
2019-06-08T16:45:47.679Z,31.80
2019-06-08T16:48:20.500Z,31.70
2019-06-08T16:50:46.792Z,31.40
2019-06-08T16:53:13.099Z,31.40
2019-06-08T16:55:39.479Z,31.50
2019-06-08T16:58:06.063Z,31.00
2019-06-08T17:00:38.381Z,32.00
2019-06-08T17:03:00.604Z,32.50
2019-06-08T17:05:26.920Z,32.60
2019-06-08T17:07:53.562Z,33.50
2019-06-08T17:10:20.011Z,33.80
2019-06-08T17:12:46.581Z,33.90
2019-06-08T17:15:12.979Z,31.70
2019-06-08T17:17:40.534Z,32.20
2019-06-08T17:20:07.165Z,31.90
2019-06-08T17:22:34.499Z,32.60
2019-06-08T17:25:01.213Z,32.30
2019-06-08T17:27:27.515Z,32.60
2019-06-08T17:29:53.961Z,33.00
2019-06-08T17:32:20.407Z,33.70
2019-06-08T17:34:46.727Z,34.00
2019-06-08T17:37:13.171Z,34.20
2019-06-08T17:39:40.102Z,34.30
2019-06-08T17:42:07.122Z,35.20
2019-06-08T17:44:34.894Z,36.50
2019-06-08T17:47:01.719Z,37.40
2019-06-08T17:49:28.233Z,37.50
2019-06-08T17:51:54.755Z,37.50
2019-06-08T17:54:21.279Z,37.90
2019-06-08T17:56:47.650Z,38.20
2019-06-08T17:59:14.066Z,37.90
2019-06-08T18:01:41.764Z,38.00
2019-06-08T18:04:08.206Z,38.30
2019-06-08T18:06:36.449Z,38.40
2019-06-08T18:09:04.372Z,38.30
2019-06-08T18:11:30.779Z,38.70
2019-06-08T18:13:58.821Z,38.90
2019-06-08T18:16:27.758Z,38.90
2019-06-08T18:18:53.592Z,39.10
2019-06-08T18:21:19.934Z,40.00
2019-06-08T18:23:48.133Z,41.10
2019-06-08T18:26:15.065Z,41.60
2019-06-08T18:28:44.097Z,40.80
2019-06-08T18:31:10.828Z,38.50
2019-06-08T18:33:39.914Z,37.90
2019-06-08T18:36:07.488Z,38.50
2019-06-08T18:38:34.833Z,38.60
2019-06-08T18:41:01.697Z,39.20
2019-06-08T18:43:28.336Z,40.20
2019-06-08T18:45:57.612Z,41.70
2019-06-08T18:48:23.827Z,41.50
2019-06-08T18:50:50.320Z,41.20
2019-06-08T18:53:19.086Z,41.50
2019-06-08T18:55:47.395Z,42.10
2019-06-08T18:58:20.681Z,42.50
2019-06-08T19:00:44.743Z,42.50
2019-06-08T19:03:11.110Z,42.40
2019-06-08T19:05:40.247Z,42.10
2019-06-08T19:08:07.082Z,42.80
2019-06-08T19:10:37.404Z,42.10
2019-06-08T19:13:03.683Z,42.00
2019-06-08T19:15:32.026Z,42.20
2019-06-08T19:17:58.343Z,42.60
2019-06-08T19:20:24.751Z,42.60
2019-06-08T19:22:54.098Z,42.50
2019-06-08T19:25:19.312Z,42.50
2019-06-08T19:27:51.818Z,42.60
2019-06-08T19:30:13.855Z,44.20
2019-06-08T19:32:41.863Z,45.00
2019-06-08T19:35:08.405Z,45.00
2019-06-08T19:37:34.811Z,44.10
2019-06-08T19:40:01.318Z,44.30
2019-06-08T19:42:36.658Z,44.90
2019-06-08T19:45:04.909Z,45.50
2019-06-08T19:47:24.052Z,45.20
2019-06-08T19:49:54.642Z,44.60
2019-06-08T19:52:18.725Z,44.60
2019-06-08T19:54:47.140Z,45.30
2019-06-08T19:57:13.260Z,45.10
2019-06-08T19:59:39.761Z,45.50
2019-06-08T20:02:08.626Z,45.30
2019-06-08T20:04:34.682Z,45.30
2019-06-08T20:07:01.021Z,45.30
2019-06-08T20:09:28.333Z,45.20
2019-06-08T20:11:57.767Z,44.60
2019-06-08T20:14:23.228Z,44.40
2019-06-08T20:16:50.835Z,44.90
2019-06-08T20:19:17.707Z,44.60
2019-06-08T20:21:44.990Z,44.10
2019-06-08T20:24:11.851Z,44.00
2019-06-08T20:26:38.191Z,44.10
2019-06-08T20:29:13.616Z,43.90
2019-06-08T20:31:32.716Z,43.70
2019-06-08T20:33:59.036Z,43.70
2019-06-08T20:36:26.628Z,43.80
2019-06-08T20:38:53.720Z,43.90
2019-06-08T20:41:20.295Z,43.90
2019-06-08T20:43:49.126Z,43.70
2019-06-08T20:46:17.175Z,43.60
2019-06-08T20:48:44.216Z,43.20
2019-06-08T20:51:10.844Z,43.10
2019-06-08T20:53:38.773Z,43.10
2019-06-08T20:56:07.779Z,43.10
2019-06-08T20:58:33.744Z,43.00
2019-06-08T21:01:00.605Z,43.10
2019-06-08T21:03:27.982Z,43.00
2019-06-08T21:05:54.941Z,43.00
2019-06-08T21:08:21.371Z,43.00
2019-06-08T21:10:52.267Z,43.00
2019-06-08T21:13:17.915Z,43.10
2019-06-08T21:15:46.579Z,43.60
2019-06-08T21:18:12.930Z,43.30
2019-06-08T21:20:39.444Z,43.20
2019-06-08T21:23:08.068Z,43.30
2019-06-08T21:25:34.210Z,43.60
2019-06-08T21:28:00.789Z,43.50
2019-06-08T21:30:28.489Z,43.50
2019-06-08T21:32:58.852Z,43.50
2019-06-08T21:35:23.550Z,43.60
2019-06-08T21:37:51.446Z,43.50
2019-06-08T21:40:18.446Z,43.60
2019-06-08T21:42:44.758Z,43.50
2019-06-08T21:45:11.172Z,43.40
2019-06-08T21:47:37.928Z,43.50
2019-06-08T21:50:05.142Z,43.40
2019-06-08T21:52:31.494Z,43.50
2019-06-08T21:54:59.338Z,43.50
2019-06-08T21:57:27.722Z,43.50
2019-06-08T22:00:18.234Z,43.50
2019-06-08T22:02:23.347Z,43.70
2019-06-08T22:04:49.845Z,43.50
2019-06-08T22:07:17.729Z,43.80
2019-06-08T22:09:44.922Z,43.60
2019-06-08T22:12:11.349Z,43.90
2019-06-08T22:14:38.183Z,43.90
2019-06-08T22:17:04.509Z,44.20
2019-06-08T22:19:30.856Z,44.20
2019-06-08T22:21:59.974Z,44.20
2019-06-08T22:24:27.749Z,44.40
2019-06-08T22:26:55.191Z,44.20
2019-06-08T22:29:22.177Z,44.40
2019-06-08T22:31:48.497Z,44.60
2019-06-08T22:34:17.320Z,45.20
2019-06-08T22:36:43.189Z,44.60
2019-06-08T22:39:09.532Z,44.90
2019-06-08T22:41:37.301Z,44.70
2019-06-08T22:44:04.080Z,44.70
2019-06-08T22:46:30.525Z,44.90
2019-06-08T22:48:59.530Z,45.30
2019-06-08T22:51:27.533Z,45.50
2019-06-08T22:53:54.998Z,45.30
2019-06-08T22:56:22.100Z,45.60
2019-06-08T22:58:48.720Z,45.30
2019-06-08T23:01:15.055Z,45.60
2019-06-08T23:03:41.798Z,45.80
2019-06-08T23:06:08.819Z,46.20
2019-06-08T23:08:37.515Z,45.60
2019-06-08T23:11:05.144Z,45.70
2019-06-08T23:13:31.969Z,45.80
2019-06-08T23:16:02.176Z,46.00
2019-06-08T23:18:26.602Z,45.90
2019-06-08T23:20:52.913Z,46.00
2019-06-08T23:23:19.255Z,46.20
2019-06-08T23:25:47.682Z,46.10
2019-06-08T23:28:13.792Z,46.20
2019-06-08T23:30:40.239Z,46.30
2019-06-08T23:33:11.088Z,46.40
2019-06-08T23:35:56.816Z,46.20
2019-06-08T23:38:03.110Z,46.00
2019-06-08T23:40:29.520Z,46.00
2019-06-08T23:42:58.082Z,46.10
2019-06-08T23:45:24.350Z,46.10
2019-06-08T23:47:50.796Z,46.30
2019-06-08T23:50:17.760Z,46.30
2019-06-08T23:52:44.752Z,46.30
2019-06-08T23:55:11.937Z,46.50
2019-06-08T23:57:38.500Z,46.70
